Time;durP1;ratioP1;P1;durP2;ratioP2;P2;SDS_P1;SDS_P2;PMS_P1;PMS_P2;Temp;Humidity;BMP_temperature;BMP_pressure;BME280_temperature;BME280_humidity;BME280_pressure;Samples;Min_cycle;Max_cycle;Signal;HPM_P1;HPM_P2
2022/04/23 00:00:23;;;;;;;5.43;3.33;;;12.40;68.50;;;;;;5011406;28;20046;-82
2022/04/23 00:02:50;;;;;;;7.57;4.50;;;12.40;67.90;;;;;;5011274;28;20180;-83
2022/04/23 00:05:17;;;;;;;5.85;3.60;;;12.40;68.20;;;;;;4993852;28;20133;-83
2022/04/23 00:07:44;;;;;;;6.13;4.10;;;12.30;68.20;;;;;;5011915;28;20045;-82
2022/04/23 00:10:11;;;;;;;5.85;3.58;;;12.40;68.40;;;;;;5028140;28;20057;-82
2022/04/23 00:12:39;;;;;;;4.97;3.65;;;12.40;69.00;;;;;;4980767;28;20084;-82
2022/04/23 00:15:07;;;;;;;6.00;3.92;;;12.30;68.40;;;;;;4989355;28;20050;-82
2022/04/23 00:17:34;;;;;;;5.82;3.22;;;12.30;68.60;;;;;;4979028;28;20053;-83
2022/04/23 00:20:01;;;;;;;5.38;3.78;;;12.30;68.70;;;;;;4996960;28;20050;-82
2022/04/23 00:22:29;;;;;;;6.22;3.55;;;12.20;68.70;;;;;;4995253;28;20467;-82
2022/04/23 00:24:57;;;;;;;6.57;4.47;;;12.20;69.00;;;;;;4992088;28;20042;-82
2022/04/23 00:27:24;;;;;;;5.20;4.03;;;12.20;69.10;;;;;;4977784;28;20108;-82
2022/04/23 00:29:52;;;;;;;6.10;4.25;;;12.20;69.30;;;;;;4997392;28;20053;-82
2022/04/23 00:32:22;;;;;;;5.53;4.05;;;12.20;69.30;;;;;;4995401;28;20045;-83
2022/04/23 00:34:49;;;;;;;5.35;3.13;;;12.20;69.60;;;;;;4990066;28;20050;-82
2022/04/23 00:37:16;;;;;;;6.55;3.80;;;12.10;69.50;;;;;;4972499;28;20042;-82
2022/04/23 00:39:43;;;;;;;6.70;4.45;;;12.10;69.50;;;;;;4991557;28;20050;-82
2022/04/23 00:42:11;;;;;;;6.28;4.38;;;12.10;69.70;;;;;;5002776;28;20115;-82
2022/04/23 00:44:38;;;;;;;7.10;4.55;;;12.10;69.90;;;;;;4992273;28;20101;-83
2022/04/23 00:47:08;;;;;;;5.95;4.10;;;12.00;69.90;;;;;;5001154;28;20060;-83
2022/04/23 00:49:36;;;;;;;6.75;4.93;;;12.00;70.00;;;;;;4990228;28;20088;-82
2022/04/23 00:52:03;;;;;;;6.93;4.50;;;12.00;70.20;;;;;;4963435;28;20409;-83
2022/04/23 00:54:30;;;;;;;5.72;3.63;;;12.00;70.30;;;;;;4959862;28;20046;-82
2022/04/23 00:56:58;;;;;;;6.63;4.63;;;11.90;70.30;;;;;;4994299;28;20049;-83
2022/04/23 00:59:27;;;;;;;6.60;4.38;;;11.90;70.50;;;;;;4978851;28;20046;-83
2022/04/23 01:01:54;;;;;;;7.90;4.50;;;11.80;70.60;;;;;;4994540;28;20064;-82
2022/04/23 01:04:21;;;;;;;6.72;4.32;;;11.90;70.70;;;;;;4994877;28;20409;-83
2022/04/23 01:06:48;;;;;;;7.07;4.78;;;11.80;70.90;;;;;;5012449;28;20049;-82
2022/04/23 01:09:15;;;;;;;8.05;5.63;;;11.80;71.00;;;;;;4978341;28;20042;-82
2022/04/23 01:11:43;;;;;;;6.05;4.45;;;11.80;71.20;;;;;;5007238;28;20081;-83
2022/04/23 01:14:10;;;;;;;6.90;4.80;;;11.80;71.20;;;;;;5010919;28;20052;-83
2022/04/23 01:16:38;;;;;;;7.75;4.97;;;11.80;71.40;;;;;;4995054;28;20100;-82
2022/04/23 01:19:05;;;;;;;7.68;4.95;;;11.80;71.40;;;;;;4994729;28;20072;-82
2022/04/23 01:21:33;;;;;;;8.10;5.88;;;11.80;71.40;;;;;;5009085;28;20542;-82
2022/04/23 01:24:02;;;;;;;11.18;6.53;;;11.80;71.60;;;;;;4992809;28;20137;-83
2022/04/23 01:26:31;;;;;;;9.35;6.82;;;11.70;71.70;;;;;;5011399;28;20042;-82
2022/04/23 01:28:59;;;;;;;7.55;5.75;;;11.80;71.90;;;;;;4993412;28;20108;-82
2022/04/23 01:31:27;;;;;;;7.53;6.05;;;11.80;72.00;;;;;;4994291;28;20438;-82
2022/04/23 01:33:55;;;;;;;8.23;5.50;;;11.70;71.90;;;;;;5011153;28;20053;-82
2022/04/23 01:36:25;;;;;;;7.97;5.20;;;11.70;72.00;;;;;;4979045;28;20096;-83
2022/04/23 01:38:52;;;;;;;6.97;4.72;;;11.80;72.00;;;;;;4978701;28;20061;-82
2022/04/23 01:41:19;;;;;;;7.32;4.70;;;11.80;72.00;;;;;;4994648;28;20038;-83
2022/04/23 01:43:49;;;;;;;7.05;4.75;;;11.80;72.00;;;;;;4975329;28;20046;-82
2022/04/23 01:46:16;;;;;;;7.90;5.30;;;11.90;72.00;;;;;;4994041;28;20042;-82
2022/04/23 01:48:43;;;;;;;9.65;6.53;;;11.90;71.90;;;;;;5010603;28;20148;-82
2022/04/23 01:51:10;;;;;;;11.05;7.05;;;12.00;72.10;;;;;;5010666;28;20376;-82
2022/04/23 01:53:38;;;;;;;11.02;7.93;;;12.00;72.20;;;;;;5010815;28;20046;-83
2022/04/23 01:56:05;;;;;;;9.48;6.72;;;12.00;72.20;;;;;;4994615;28;20140;-82
2022/04/23 01:58:32;;;;;;;10.05;6.85;;;12.10;72.10;;;;;;4980957;28;20132;-82
2022/04/23 02:00:59;;;;;;;9.65;6.70;;;12.10;72.10;;;;;;5011014;28;20048;-82
2022/04/23 02:03:29;;;;;;;9.07;6.65;;;12.10;72.10;;;;;;5010515;28;20054;-82
2022/04/23 02:05:56;;;;;;;9.90;7.00;;;12.10;72.10;;;;;;5010780;28;20046;-83
2022/04/23 02:08:26;;;;;;;10.75;7.00;;;12.10;72.10;;;;;;4994407;28;20517;-82
2022/04/23 02:10:54;;;;;;;7.43;5.18;;;12.20;72.20;;;;;;5010442;28;20513;-83
2022/04/23 02:13:21;;;;;;;10.18;6.93;;;12.20;72.10;;;;;;5010624;28;20128;-82
2022/04/23 02:15:48;;;;;;;7.63;5.30;;;12.20;72.10;;;;;;4991146;28;20046;-82
2022/04/23 02:18:16;;;;;;;8.50;5.40;;;12.10;72.10;;;;;;4989727;28;20450;-82
2022/04/23 02:20:43;;;;;;;6.97;5.38;;;12.10;72.20;;;;;;4994573;28;20576;-83
2022/04/23 02:23:10;;;;;;;6.57;5.25;;;12.10;72.40;;;;;;4994426;28;20050;-82
2022/04/23 02:25:37;;;;;;;8.35;6.25;;;12.10;72.50;;;;;;5010723;28;20100;-82
2022/04/23 02:28:05;;;;;;;7.95;5.15;;;12.10;72.50;;;;;;5014050;28;20469;-82
2022/04/23 02:30:33;;;;;;;9.18;6.10;;;12.10;72.50;;;;;;4997783;28;20042;-83
2022/04/23 02:33:00;;;;;;;9.57;6.68;;;12.10;72.50;;;;;;4997560;28;20041;-83
2022/04/23 02:35:28;;;;;;;8.40;6.03;;;12.10;72.50;;;;;;5010734;28;20108;-83
2022/04/23 02:37:56;;;;;;;7.22;5.28;;;12.10;72.50;;;;;;5011819;28;20045;-83
2022/04/23 02:40:24;;;;;;;8.23;4.93;;;12.10;72.50;;;;;;4994343;28;20050;-82
2022/04/23 02:42:51;;;;;;;7.32;5.15;;;12.00;72.60;;;;;;5010683;28;20457;-83
2022/04/23 02:45:20;;;;;;;7.95;4.85;;;12.00;72.60;;;;;;4977962;28;20223;-83
2022/04/23 02:47:48;;;;;;;7.63;5.18;;;12.00;72.70;;;;;;5009413;28;20124;-82
2022/04/23 02:50:25;;;;;;;7.65;5.20;;;12.00;72.80;;;;;;4997719;28;20046;-83
2022/04/23 02:52:55;;;;;;;7.88;6.03;;;11.90;72.90;;;;;;5013645;28;20046;-82
2022/04/23 02:55:23;;;;;;;9.02;4.88;;;11.80;73.10;;;;;;5009406;28;20450;-83
2022/04/23 02:57:51;;;;;;;7.72;5.45;;;11.80;73.20;;;;;;5007865;28;20457;-83
2022/04/23 03:00:19;;;;;;;7.13;5.10;;;11.80;73.30;;;;;;4997297;28;20061;-82
2022/04/23 03:02:47;;;;;;;8.98;5.15;;;11.80;73.40;;;;;;5013362;28;20396;-82
2022/04/23 03:05:15;;;;;;;9.35;5.57;;;11.70;73.40;;;;;;5013423;28;20119;-83
2022/04/23 03:07:45;;;;;;;8.55;5.13;;;11.70;73.50;;;;;;5012777;28;20066;-82
2022/04/23 03:10:15;;;;;;;8.73;6.18;;;11.80;73.50;;;;;;4997453;28;20084;-82
2022/04/23 03:12:43;;;;;;;12.13;8.00;;;11.70;73.60;;;;;;5002819;28;20076;-82
2022/04/23 03:15:13;;;;;;;10.88;7.55;;;11.70;73.80;;;;;;5008877;28;20053;-82
2022/04/23 03:17:40;;;;;;;8.95;6.28;;;11.70;74.00;;;;;;5006320;28;20046;-82
2022/04/23 03:20:09;;;;;;;10.10;6.18;;;11.60;74.00;;;;;;5001687;28;20443;-82
2022/04/23 03:22:40;;;;;;;9.02;5.97;;;11.60;74.10;;;;;;4997036;28;20037;-82
2022/04/23 03:25:09;;;;;;;9.15;6.43;;;11.50;74.80;;;;;;4996095;28;20076;-82
2022/04/23 03:27:36;;;;;;;9.75;7.10;;;11.50;74.30;;;;;;4994510;28;20088;-81
2022/04/23 03:30:12;;;;;;;9.43;6.82;;;11.50;74.40;;;;;;4998356;28;20049;-90
2022/04/23 03:32:44;;;;;;;10.18;6.78;;;11.40;74.40;;;;;;5000276;28;20050;-89
2022/04/23 03:35:11;;;;;;;11.10;7.47;;;11.40;74.50;;;;;;5003216;28;20140;-89
2022/04/23 03:37:39;;;;;;;7.43;5.43;;;11.40;74.60;;;;;;4998624;28;20054;-90
2022/04/23 03:40:08;;;;;;;10.50;7.32;;;11.40;75.30;;;;;;4979429;28;20078;-91
2022/04/23 03:42:39;;;;;;;11.85;8.65;;;11.40;74.80;;;;;;4978515;28;20050;-91
2022/04/23 03:45:09;;;;;;;10.82;7.97;;;11.40;75.10;;;;;;4982802;28;20049;-92
2022/04/23 03:47:44;;;;;;;10.20;7.13;;;11.30;75.10;;;;;;5011083;28;20466;-87
2022/04/23 03:50:13;;;;;;;8.95;6.80;;;11.30;75.00;;;;;;5013396;28;20474;-86
2022/04/23 03:52:40;;;;;;;9.23;6.88;;;11.30;75.10;;;;;;4993737;28;20128;-86
2022/04/23 03:55:09;;;;;;;8.32;6.25;;;11.30;75.20;;;;;;5013624;28;20053;-87
2022/04/23 03:57:46;;;;;;;9.32;6.75;;;11.20;75.20;;;;;;4991139;28;20140;-86
2022/04/23 04:00:14;;;;;;;11.85;7.40;;;11.20;75.30;;;;;;5001287;28;20061;-87
2022/04/23 04:02:43;;;;;;;11.07;8.13;;;11.20;75.40;;;;;;4990188;28;20529;-87
2022/04/23 04:05:12;;;;;;;10.20;7.22;;;11.20;75.50;;;;;;4981370;28;20129;-86
2022/04/23 04:07:43;;;;;;;10.82;7.53;;;11.20;75.60;;;;;;4994518;28;20042;-87
2022/04/23 04:10:15;;;;;;;8.57;6.80;;;11.20;75.70;;;;;;4993865;28;20056;-86
2022/04/23 04:12:42;;;;;;;9.97;7.77;;;11.10;75.70;;;;;;4992828;28;20042;-87
2022/04/23 04:15:11;;;;;;;10.25;7.82;;;11.10;75.80;;;;;;4997285;28;20077;-85
2022/04/23 04:17:40;;;;;;;11.00;8.40;;;11.10;76.00;;;;;;4997130;28;20050;-86
2022/04/23 04:20:13;;;;;;;9.15;7.10;;;11.10;75.90;;;;;;5010129;28;20132;-86
2022/04/23 04:22:45;;;;;;;12.05;8.27;;;11.10;75.90;;;;;;4997469;28;20409;-86
2022/04/23 04:25:13;;;;;;;10.73;8.15;;;11.20;76.00;;;;;;4989198;28;20104;-85
2022/04/23 04:27:41;;;;;;;10.13;6.63;;;11.10;76.00;;;;;;4996727;28;20046;-86
2022/04/23 04:30:11;;;;;;;11.00;8.10;;;11.10;75.90;;;;;;4997033;28;20419;-86
2022/04/23 04:32:41;;;;;;;10.50;7.50;;;11.10;76.10;;;;;;4996351;28;20042;-86
2022/04/23 04:35:10;;;;;;;11.90;8.93;;;11.10;76.20;;;;;;5006639;28;20144;-85
2022/04/23 04:37:37;;;;;;;11.50;8.38;;;11.00;76.40;;;;;;4994528;28;20054;-84
2022/04/23 04:40:05;;;;;;;11.93;8.55;;;11.00;76.50;;;;;;4995143;28;20050;-84
2022/04/23 04:42:33;;;;;;;13.40;10.13;;;10.90;76.70;;;;;;5007139;28;20060;-85
2022/04/23 04:45:00;;;;;;;11.05;8.18;;;10.90;76.70;;;;;;4996209;28;20137;-84
2022/04/23 04:47:27;;;;;;;11.65;8.02;;;10.90;76.80;;;;;;4984774;28;20065;-83
2022/04/23 04:49:55;;;;;;;11.43;8.43;;;10.80;76.80;;;;;;5010185;28;20062;-85
2022/04/23 04:52:22;;;;;;;10.10;7.60;;;10.80;76.90;;;;;;4995571;28;20100;-86
2022/04/23 04:54:55;;;;;;;11.10;8.43;;;10.80;76.90;;;;;;4980100;28;20054;-82
2022/04/23 04:57:23;;;;;;;12.13;8.98;;;10.80;77.00;;;;;;4968877;28;20073;-83
2022/04/23 04:59:50;;;;;;;9.55;7.22;;;10.80;77.10;;;;;;5004962;28;20038;-84
2022/04/23 05:02:17;;;;;;;10.85;7.28;;;10.80;77.70;;;;;;5001050;28;20052;-86
2022/04/23 05:04:44;;;;;;;11.30;8.25;;;10.80;77.10;;;;;;4995561;28;20045;-82
2022/04/23 05:07:12;;;;;;;10.20;7.47;;;10.80;77.20;;;;;;5000148;28;20364;-83
2022/04/23 05:09:39;;;;;;;9.77;7.38;;;10.80;77.80;;;;;;5004697;28;20048;-82
2022/04/23 05:12:06;;;;;;;11.88;7.43;;;10.80;77.20;;;;;;4996022;28;20057;-85
2022/04/23 05:14:33;;;;;;;9.85;7.18;;;10.90;77.30;;;;;;4975857;28;20112;-82
2022/04/23 05:17:09;;;;;;;10.85;7.97;;;10.80;77.20;;;;;;5011987;28;20048;-85
2022/04/23 05:19:37;;;;;;;11.60;8.02;;;10.90;77.40;;;;;;4997190;28;20083;-85
2022/04/23 05:22:04;;;;;;;12.57;9.23;;;10.90;77.40;;;;;;4996547;28;21605;-85
2022/04/23 05:24:31;;;;;;;10.25;7.95;;;10.90;78.00;;;;;;5013032;28;20038;-89
2022/04/23 05:27:00;;;;;;;11.52;8.70;;;10.90;77.40;;;;;;4996696;28;20042;-90
2022/04/23 05:29:28;;;;;;;11.85;8.32;;;11.00;77.30;;;;;;4997530;28;20038;-88
2022/04/23 05:31:56;;;;;;;13.63;9.55;;;11.00;77.30;;;;;;5009314;28;20448;-84
2022/04/23 05:34:25;;;;;;;10.48;8.13;;;11.00;77.30;;;;;;5011700;28;20038;-83
2022/04/23 05:36:52;;;;;;;10.75;8.35;;;11.00;77.90;;;;;;4980522;28;20046;-84
2022/04/23 05:39:19;;;;;;;10.55;8.38;;;11.10;77.30;;;;;;4995729;28;20065;-84
2022/04/23 05:41:47;;;;;;;12.00;8.95;;;11.00;77.40;;;;;;4979833;28;20478;-84
2022/04/23 05:44:14;;;;;;;11.13;8.25;;;11.00;77.50;;;;;;5006008;28;20044;-83
2022/04/23 05:46:41;;;;;;;12.05;9.27;;;11.00;77.60;;;;;;4995366;28;20048;-84
2022/04/23 05:49:08;;;;;;;13.82;10.98;;;11.00;77.70;;;;;;5012248;28;20050;-84
2022/04/23 05:51:35;;;;;;;11.88;9.07;;;11.00;77.80;;;;;;4981402;28;20046;-85
2022/04/23 05:54:04;;;;;;;12.73;8.82;;;11.00;77.70;;;;;;4995447;28;20042;-83
2022/04/23 05:56:43;;;;;;;10.77;8.32;;;11.10;77.70;;;;;;4995405;28;20049;-87
2022/04/23 05:59:10;;;;;;;11.75;8.57;;;11.10;77.60;;;;;;5008461;28;20054;-86
2022/04/23 06:01:38;;;;;;;12.32;9.73;;;11.10;77.70;;;;;;4993678;28;20140;-85
2022/04/23 06:04:05;;;;;;;12.98;9.02;;;11.10;77.70;;;;;;4988021;28;20104;-85
2022/04/23 06:06:32;;;;;;;10.55;8.05;;;11.10;77.60;;;;;;5006162;28;20038;-85
2022/04/23 06:09:00;;;;;;;11.52;9.00;;;11.10;77.60;;;;;;5015628;28;20057;-85
2022/04/23 06:11:27;;;;;;;10.63;8.23;;;11.10;77.70;;;;;;4998454;28;20042;-85
2022/04/23 06:13:54;;;;;;;11.10;7.93;;;11.10;77.70;;;;;;4998871;28;20052;-84
2022/04/23 06:16:21;;;;;;;10.85;8.73;;;11.10;77.70;;;;;;5012249;28;20125;-87
2022/04/23 06:18:49;;;;;;;10.60;8.38;;;11.20;77.70;;;;;;4999169;28;20056;-87
2022/04/23 06:21:17;;;;;;;11.27;8.73;;;11.30;77.60;;;;;;4999379;28;20050;-87
2022/04/23 06:23:44;;;;;;;11.38;8.32;;;11.40;77.50;;;;;;5015927;28;20100;-87
2022/04/23 06:26:12;;;;;;;12.10;9.05;;;11.40;77.30;;;;;;4999155;28;20041;-87
2022/04/23 06:28:39;;;;;;;12.50;8.73;;;11.40;77.30;;;;;;4999343;28;20119;-87
2022/04/23 06:31:07;;;;;;;9.20;7.30;;;11.40;77.20;;;;;;5015274;28;20092;-86
2022/04/23 06:33:34;;;;;;;12.13;8.57;;;11.40;77.20;;;;;;4988360;28;20038;-87
2022/04/23 06:36:01;;;;;;;12.02;8.85;;;11.40;77.30;;;;;;4999411;28;20054;-88
2022/04/23 06:38:28;;;;;;;11.65;8.75;;;11.50;77.30;;;;;;4983079;28;20046;-87
2022/04/23 06:40:55;;;;;;;11.45;7.75;;;11.60;77.20;;;;;;5015106;28;20425;-85
2022/04/23 06:43:23;;;;;;;13.82;9.40;;;11.60;77.00;;;;;;4982471;28;20042;-85
2022/04/23 06:45:50;;;;;;;10.85;8.40;;;11.80;76.80;;;;;;5014927;28;20049;-85
2022/04/23 06:48:17;;;;;;;12.02;8.98;;;11.80;76.60;;;;;;5014287;28;20065;-85
2022/04/23 06:50:48;;;;;;;10.85;8.18;;;11.90;76.40;;;;;;4998900;28;20048;-86
2022/04/23 06:53:18;;;;;;;9.52;7.70;;;12.00;76.40;;;;;;5014319;28;20092;-86
2022/04/23 06:55:45;;;;;;;11.43;8.68;;;12.10;76.20;;;;;;4998680;28;20129;-87
2022/04/23 06:58:12;;;;;;;10.15;8.70;;;12.10;76.10;;;;;;4998590;28;20146;-88
2022/04/23 07:00:41;;;;;;;11.45;9.13;;;12.20;75.90;;;;;;4984933;28;20049;-86
2022/04/23 07:03:08;;;;;;;10.57;8.55;;;12.20;75.90;;;;;;4998597;28;20045;-87
2022/04/23 07:05:35;;;;;;;11.40;8.23;;;12.40;75.80;;;;;;5011233;28;20042;-87
2022/04/23 07:08:03;;;;;;;10.50;8.10;;;12.40;75.60;;;;;;4995536;28;20091;-87
2022/04/23 07:10:32;;;;;;;11.45;8.63;;;12.60;75.40;;;;;;4998238;28;20137;-87
2022/04/23 07:12:59;;;;;;;11.55;8.43;;;12.70;75.20;;;;;;5014353;28;20482;-86
2022/04/23 07:15:28;;;;;;;11.52;9.32;;;12.70;75.00;;;;;;5014278;28;20058;-87
2022/04/23 07:17:56;;;;;;;10.88;8.85;;;12.80;74.80;;;;;;5014355;28;20046;-87
2022/04/23 07:20:24;;;;;;;11.80;9.32;;;12.90;74.70;;;;;;5014055;28;20057;-87
2022/04/23 07:25:37;;;;;;;11.55;8.13;;;13.00;74.50;;;;;;5014219;28;20154;-87
2022/04/23 07:28:05;;;;;;;11.52;8.68;;;13.10;74.30;;;;;;5014509;28;20045;-87
2022/04/23 07:30:34;;;;;;;13.82;10.40;;;13.20;74.10;;;;;;4998202;28;20042;-88
2022/04/23 07:33:02;;;;;;;12.77;9.65;;;13.20;73.90;;;;;;4997941;28;20552;-87
2022/04/23 07:38:20;;;;;;;10.23;8.15;;;13.30;73.70;;;;;;5017043;28;20554;-87
2022/04/23 07:40:51;;;;;;;12.63;9.40;;;13.40;73.50;;;;;;5017279;28;20054;-86
2022/04/23 07:43:19;;;;;;;13.18;10.45;;;13.40;73.30;;;;;;5006380;28;20045;-87
2022/04/23 07:45:47;;;;;;;12.85;9.73;;;13.50;73.30;;;;;;5008261;28;20498;-86
2022/04/23 07:48:16;;;;;;;13.40;9.85;;;13.50;73.10;;;;;;4999001;28;20073;-86
2022/04/23 07:50:43;;;;;;;11.25;8.77;;;13.60;73.00;;;;;;4990108;28;20152;-86
2022/04/23 07:53:11;;;;;;;11.27;9.00;;;13.70;72.90;;;;;;5014085;28;20402;-86
2022/04/23 07:55:40;;;;;;;12.98;8.77;;;13.80;72.70;;;;;;4998792;28;20049;-86
2022/04/23 07:58:11;;;;;;;11.43;8.63;;;13.80;72.50;;;;;;4998281;28;20443;-86
2022/04/23 08:00:40;;;;;;;11.48;9.07;;;13.90;72.40;;;;;;4998434;28;20050;-85
2022/04/23 08:03:08;;;;;;;13.05;10.15;;;13.90;72.20;;;;;;5012332;28;20153;-86
2022/04/23 08:05:37;;;;;;;13.95;10.18;;;13.90;72.00;;;;;;4994900;28;20839;-86
2022/04/23 08:08:04;;;;;;;11.45;9.02;;;14.00;72.00;;;;;;4999811;28;20435;-86
2022/04/23 08:10:32;;;;;;;11.57;8.52;;;14.10;71.90;;;;;;4997681;28;20050;-86
2022/04/23 08:12:59;;;;;;;11.57;8.85;;;14.10;71.80;;;;;;4997525;28;20120;-86
2022/04/23 08:15:26;;;;;;;12.23;9.55;;;14.20;71.50;;;;;;4993975;28;20081;-85
2022/04/23 08:17:54;;;;;;;12.68;9.00;;;14.30;71.40;;;;;;5002083;28;20046;-86
2022/04/23 08:20:21;;;;;;;12.27;9.45;;;14.40;71.20;;;;;;4980097;28;20052;-86
2022/04/23 08:22:48;;;;;;;13.13;10.68;;;14.40;71.00;;;;;;5013766;28;20858;-85
2022/04/23 08:25:16;;;;;;;12.23;10.00;;;14.50;70.80;;;;;;5012996;28;20046;-85
2022/04/23 08:27:50;;;;;;;14.50;10.73;;;14.60;70.70;;;;;;4997547;28;20054;-86
2022/04/23 08:30:36;;;;;;;14.13;10.38;;;14.70;70.30;;;;;;5013196;28;20133;-86
2022/04/23 08:33:05;;;;;;;13.95;10.35;;;14.70;70.10;;;;;;4996516;28;20118;-87
2022/04/23 08:35:33;;;;;;;13.35;9.80;;;14.80;70.00;;;;;;4994553;28;20042;-87
2022/04/23 08:38:01;;;;;;;11.80;9.65;;;14.90;69.90;;;;;;5013370;28;20050;-86
2022/04/23 08:40:49;;;;;;;12.13;8.88;;;14.90;69.70;;;;;;4996932;28;20133;-87
2022/04/23 08:43:17;;;;;;;14.25;10.85;;;14.90;69.70;;;;;;4993299;28;20112;-86
2022/04/23 08:45:44;;;;;;;12.82;9.77;;;14.90;69.50;;;;;;5011203;28;20037;-89
2022/04/23 08:48:12;;;;;;;11.98;9.35;;;14.90;69.50;;;;;;4997601;28;20457;-86
2022/04/23 08:50:41;;;;;;;13.90;9.82;;;15.00;69.30;;;;;;4996690;28;20057;-86
2022/04/23 08:53:18;;;;;;;14.35;10.40;;;15.10;69.20;;;;;;4998001;28;20050;-87
2022/04/23 08:55:57;;;;;;;12.80;9.52;;;15.20;68.90;;;;;;5011793;28;20046;-89
2022/04/23 08:58:24;;;;;;;11.45;9.20;;;15.30;68.70;;;;;;5010696;28;20092;-87
2022/04/23 09:00:51;;;;;;;14.57;10.93;;;15.30;68.60;;;;;;4996193;28;20541;-87
2022/04/23 09:03:22;;;;;;;15.15;10.38;;;15.40;68.30;;;;;;4997028;28;20129;-86
2022/04/23 09:05:51;;;;;;;14.15;9.95;;;15.50;68.30;;;;;;5013481;28;20073;-89
2022/04/23 09:08:19;;;;;;;12.32;9.30;;;15.60;68.10;;;;;;5013285;28;20050;-88
2022/04/23 09:10:57;;;;;;;12.60;9.63;;;15.80;67.80;;;;;;4996546;28;20077;-88
2022/04/23 09:13:26;;;;;;;12.68;9.23;;;15.80;67.40;;;;;;5012861;28;20502;-90
2022/04/23 09:24:45;;;;;;;12.35;9.13;;;15.70;66.80;;;;;;5012207;28;20064;-85
2022/04/23 09:27:12;;;;;;;11.65;9.13;;;15.80;66.80;;;;;;5011758;28;20402;-87
2022/04/23 09:29:42;;;;;;;13.27;9.68;;;15.90;66.60;;;;;;5014989;28;20049;-87
2022/04/23 09:32:19;;;;;;;13.20;9.32;;;16.00;66.30;;;;;;4996251;28;20053;-87
2022/04/23 09:34:46;;;;;;;15.75;11.13;;;16.10;66.10;;;;;;4996532;28;20079;-88
2022/04/23 09:38:11;;;;;;;16.38;12.30;;;16.00;65.60;;;;;;4999529;28;20113;-86
2022/04/23 09:40:21;;;;;;;14.82;11.43;;;16.00;65.50;;;;;;5016808;28;20114;-86
2022/04/23 09:43:08;;;;;;;13.70;9.30;;;15.90;65.60;;;;;;5015913;28;20042;-86
2022/04/23 09:45:41;;;;;;;13.43;10.07;;;16.10;65.60;;;;;;5015506;28;20042;-87
2022/04/23 09:48:17;;;;;;;12.20;9.30;;;16.20;65.20;;;;;;4998563;28;20137;-85
2022/04/23 09:50:47;;;;;;;13.43;9.27;;;16.40;65.00;;;;;;5013154;28;20046;-86
2022/04/23 09:53:19;;;;;;;11.25;9.15;;;16.50;64.80;;;;;;4996331;28;20125;-87
2022/04/23 09:55:50;;;;;;;12.82;9.75;;;16.70;64.40;;;;;;4999797;28;20078;-86
2022/04/23 09:58:21;;;;;;;15.18;9.27;;;16.80;64.00;;;;;;5015466;28;20056;-86
2022/04/23 10:00:50;;;;;;;15.07;10.65;;;16.80;63.80;;;;;;4996461;28;20042;-86
2022/04/23 10:03:19;;;;;;;13.23;9.80;;;16.80;63.60;;;;;;5012501;28;20045;-86
2022/04/23 10:05:48;;;;;;;13.23;10.57;;;16.80;63.30;;;;;;5015547;28;20052;-86
2022/04/23 10:08:26;;;;;;;15.60;10.27;;;16.80;63.20;;;;;;5015153;28;20046;-86
2022/04/23 10:11:10;;;;;;;15.13;11.02;;;16.70;63.20;;;;;;4998431;28;20053;-86
2022/04/23 10:13:46;;;;;;;12.50;9.40;;;16.60;63.10;;;;;;5014645;28;20072;-86
2022/04/23 10:16:24;;;;;;;11.60;8.65;;;16.60;63.10;;;;;;5000473;28;20050;-86
2022/04/23 10:18:52;;;;;;;14.10;10.40;;;16.80;63.10;;;;;;5014967;28;20070;-85
2022/04/23 10:21:53;;;;;;;12.23;9.00;;;17.00;62.40;;;;;;4999022;28;20118;-87
2022/04/23 10:25:04;;;;;;;14.15;9.70;;;17.20;62.10;;;;;;4995886;28;20050;-87
2022/04/23 10:27:33;;;;;;;11.80;8.63;;;17.50;61.40;;;;;;4956616;28;20046;-87
2022/04/23 10:30:04;;;;;;;11.93;8.18;;;17.60;61.30;;;;;;4942799;28;20146;-86
2022/04/23 10:32:39;;;;;;;9.85;7.72;;;17.80;61.00;;;;;;4985498;28;20143;-86
2022/04/23 10:35:19;;;;;;;12.32;8.43;;;17.90;60.60;;;;;;4998922;28;20050;-88
2022/04/23 10:37:53;;;;;;;11.93;8.52;;;17.80;60.20;;;;;;4985760;28;20050;-85
2022/04/23 10:40:21;;;;;;;12.18;8.75;;;17.80;60.50;;;;;;4998243;28;20038;-86
2022/04/23 10:43:04;;;;;;;12.35;8.65;;;17.80;60.40;;;;;;5015242;28;20050;-86
2022/04/23 10:45:35;;;;;;;13.13;9.90;;;18.10;59.80;;;;;;5014754;28;20463;-85
2022/04/23 10:48:22;;;;;;;12.27;9.65;;;18.20;59.30;;;;;;5014549;28;20049;-87
2022/04/23 10:51:15;;;;;;;13.80;9.80;;;18.10;59.50;;;;;;5014467;28;20061;-85
2022/04/23 10:53:42;;;;;;;12.90;9.20;;;18.20;59.30;;;;;;4993968;28;20487;-84
2022/04/23 10:56:15;;;;;;;13.02;8.73;;;18.20;59.20;;;;;;5014201;28;20053;-85
2022/04/23 10:58:42;;;;;;;13.70;10.50;;;18.30;59.00;;;;;;4998159;28;20144;-86
2022/04/23 11:01:30;;;;;;;12.68;9.27;;;18.20;58.80;;;;;;4995275;28;20046;-82
2022/04/23 11:04:07;;;;;;;11.68;8.73;;;18.20;59.20;;;;;;4997003;28;20054;-89
2022/04/23 11:12:33;;;;;;;13.65;9.25;;;18.50;58.70;;;;;;5014055;28;20060;-85
2022/04/23 11:15:12;;;;;;;10.90;8.70;;;18.30;58.70;;;;;;5014133;28;20042;-87
2022/04/23 11:17:41;;;;;;;12.10;9.35;;;18.30;59.00;;;;;;4998133;28;20050;-87
2022/04/23 11:20:25;;;;;;;14.25;10.05;;;18.50;58.80;;;;;;5013036;28;20068;-83
2022/04/23 11:22:52;;;;;;;11.88;8.65;;;18.80;58.40;;;;;;4999228;28;20046;-81
2022/04/23 11:25:20;;;;;;;14.57;11.50;;;19.40;57.70;;;;;;5029359;28;20072;-80
2022/04/23 11:27:48;;;;;;;14.52;10.23;;;20.20;55.90;;;;;;5013079;28;20050;-82
2022/04/23 11:30:16;;;;;;;12.98;8.60;;;20.70;55.50;;;;;;5010402;28;20044;-90
2022/04/23 11:32:43;;;;;;;11.75;8.73;;;21.10;54.00;;;;;;4996690;28;20038;-91
2022/04/23 11:35:11;;;;;;;12.65;8.68;;;21.40;53.70;;;;;;5011889;28;20049;-91
2022/04/23 11:37:39;;;;;;;11.82;8.70;;;21.70;53.20;;;;;;4998044;28;20495;-90
2022/04/23 11:40:16;;;;;;;15.55;11.07;;;22.00;52.50;;;;;;5013694;28;20093;-90
2022/04/23 11:42:45;;;;;;;15.05;10.25;;;21.80;51.90;;;;;;4996900;28;20054;-83
2022/04/23 11:45:16;;;;;;;12.75;9.23;;;21.50;52.50;;;;;;4996738;28;20140;-80
2022/04/23 11:47:43;;;;;;;12.43;9.00;;;21.30;53.00;;;;;;5012620;28;20041;-82
2022/04/23 11:50:15;;;;;;;12.30;9.25;;;21.50;53.00;;;;;;4993831;28;20120;-85
2022/04/23 11:52:44;;;;;;;15.50;9.95;;;21.80;52.20;;;;;;5007477;28;20116;-84
2022/04/23 11:55:41;;;;;;;13.30;10.18;;;21.90;51.90;;;;;;5016547;28;20109;-90
2022/04/23 11:58:08;;;;;;;12.52;10.00;;;22.30;51.10;;;;;;5008360;28;20045;-81
2022/04/23 12:00:35;;;;;;;14.70;10.82;;;22.20;50.80;;;;;;5013473;28;20030;-82
2022/04/23 12:03:03;;;;;;;15.38;11.00;;;21.60;51.20;;;;;;5010983;28;20443;-88
2022/04/23 12:05:32;;;;;;;16.25;10.35;;;21.20;52.10;;;;;;5013650;28;20494;-85
2022/04/23 12:08:40;;;;;;;14.05;10.32;;;20.90;52.30;;;;;;4997858;28;20042;-85
2022/04/23 12:11:26;;;;;;;12.48;9.30;;;20.60;53.10;;;;;;5018627;28;20089;-87
2022/04/23 12:13:54;;;;;;;13.18;8.90;;;20.50;52.90;;;;;;4980970;28;20050;-88
2022/04/23 12:16:35;;;;;;;11.55;9.45;;;20.40;53.20;;;;;;4986581;28;20042;-91
2022/04/23 12:19:28;;;;;;;13.32;10.45;;;20.30;52.60;;;;;;4983998;28;20056;-93
2022/04/23 12:21:58;;;;;;;13.57;10.05;;;20.10;52.80;;;;;;4987799;28;20460;-82
2022/04/23 12:24:34;;;;;;;13.25;9.38;;;20.10;52.80;;;;;;4971264;28;20066;-81
2022/04/23 12:27:41;;;;;;;12.60;8.45;;;20.10;52.80;;;;;;4953441;28;20423;-87
2022/04/23 12:42:36;;;;;;;13.02;8.27;;;20.30;52.50;;;;;;4994407;28;20042;-86
2022/04/23 12:45:17;;;;;;;13.80;9.10;;;20.20;52.50;;;;;;4965055;28;20057;-89
2022/04/23 12:47:45;;;;;;;10.45;8.02;;;20.00;52.30;;;;;;4994145;28;20069;-85
2022/04/23 12:50:57;;;;;;;10.60;8.10;;;19.90;52.20;;;;;;4962823;28;20048;-91
2022/04/23 12:56:47;;;;;;;9.20;7.57;;;20.00;52.50;;;;;;4988396;28;20046;-87
2022/04/23 12:59:35;;;;;;;10.40;8.23;;;20.00;52.00;;;;;;4976629;28;20078;-88
2022/04/23 13:02:03;;;;;;;10.60;7.82;;;19.90;51.60;;;;;;4974911;28;20057;-90
2022/04/23 13:04:30;;;;;;;10.75;7.35;;;19.90;51.90;;;;;;4956510;28;20056;-89
2022/04/23 13:09:46;;;;;;;12.60;9.05;;;19.80;51.80;;;;;;4993512;28;20046;-88
2022/04/23 13:12:13;;;;;;;11.75;8.23;;;19.80;51.30;;;;;;4967554;28;20101;-90
2022/04/23 13:14:42;;;;;;;11.60;8.43;;;19.80;51.40;;;;;;4984632;28;20057;-89
2022/04/23 13:17:09;;;;;;;11.07;8.63;;;19.70;51.40;;;;;;4989976;28;20054;-87
2022/04/23 13:19:39;;;;;;;10.65;7.30;;;19.60;51.30;;;;;;4985976;28;20478;-84
2022/04/23 13:22:07;;;;;;;10.60;7.70;;;19.60;51.40;;;;;;4989831;28;20041;-86
2022/04/23 13:24:34;;;;;;;9.43;6.93;;;19.70;51.40;;;;;;4978584;28;20057;-83
2022/04/23 13:27:01;;;;;;;7.90;5.82;;;19.70;51.40;;;;;;4985381;28;20038;-85
2022/04/23 13:29:29;;;;;;;10.57;6.28;;;19.70;51.40;;;;;;4975968;28;20035;-85
2022/04/23 13:31:56;;;;;;;8.57;6.38;;;19.80;51.40;;;;;;4961401;28;20063;-91